sensor_id;sensor_type;location;lat;lon;timestamp;P1;durP1;ratioP1;P2;durP2;ratioP2
33104;SDS011;19476;51.448;6.674;2024-02-28T00:00:55;17.38;;;10.10;;
33104;SDS011;19476;51.448;6.674;2024-02-28T00:03:20;18.98;;;11.00;;
33104;SDS011;19476;51.448;6.674;2024-02-28T00:05:48;19.27;;;10.82;;
33104;SDS011;19476;51.448;6.674;2024-02-28T00:08:14;18.63;;;10.63;;
33104;SDS011;19476;51.448;6.674;2024-02-28T00:10:39;18.70;;;10.10;;
33104;SDS011;19476;51.448;6.674;2024-02-28T00:13:05;17.33;;;9.93;;
33104;SDS011;19476;51.448;6.674;2024-02-28T00:15:30;16.83;;;10.10;;
33104;SDS011;19476;51.448;6.674;2024-02-28T00:17:56;18.63;;;11.18;;
33104;SDS011;19476;51.448;6.674;2024-02-28T00:20:23;17.13;;;9.50;;
33104;SDS011;19476;51.448;6.674;2024-02-28T00:22:52;17.17;;;9.82;;
33104;SDS011;19476;51.448;6.674;2024-02-28T00:25:18;18.67;;;10.80;;
33104;SDS011;19476;51.448;6.674;2024-02-28T00:27:43;19.20;;;9.90;;
33104;SDS011;19476;51.448;6.674;2024-02-28T00:30:09;17.75;;;9.25;;
33104;SDS011;19476;51.448;6.674;2024-02-28T00:32:35;17.88;;;9.60;;
33104;SDS011;19476;51.448;6.674;2024-02-28T00:35:01;18.58;;;10.13;;
33104;SDS011;19476;51.448;6.674;2024-02-28T00:37:27;18.45;;;10.48;;
33104;SDS011;19476;51.448;6.674;2024-02-28T00:39:53;18.00;;;9.98;;
33104;SDS011;19476;51.448;6.674;2024-02-28T00:42:19;18.55;;;10.25;;
33104;SDS011;19476;51.448;6.674;2024-02-28T00:44:44;17.20;;;10.07;;
33104;SDS011;19476;51.448;6.674;2024-02-28T00:47:10;17.38;;;9.90;;
33104;SDS011;19476;51.448;6.674;2024-02-28T00:49:37;18.23;;;10.18;;
33104;SDS011;19476;51.448;6.674;2024-02-28T00:52:02;18.25;;;10.20;;
33104;SDS011;19476;51.448;6.674;2024-02-28T00:54:28;17.52;;;9.65;;
33104;SDS011;19476;51.448;6.674;2024-02-28T00:56:54;18.60;;;10.18;;
33104;SDS011;19476;51.448;6.674;2024-02-28T00:59:33;19.88;;;10.50;;
33104;SDS011;19476;51.448;6.674;2024-02-28T01:02:05;17.90;;;10.48;;
33104;SDS011;19476;51.448;6.674;2024-02-28T01:04:33;18.65;;;10.85;;
33104;SDS011;19476;51.448;6.674;2024-02-28T01:06:59;17.70;;;10.27;;
33104;SDS011;19476;51.448;6.674;2024-02-28T01:09:25;17.00;;;9.63;;
33104;SDS011;19476;51.448;6.674;2024-02-28T01:11:51;19.85;;;11.32;;
33104;SDS011;19476;51.448;6.674;2024-02-28T01:14:17;19.27;;;10.35;;
33104;SDS011;19476;51.448;6.674;2024-02-28T01:16:42;18.30;;;10.13;;
33104;SDS011;19476;51.448;6.674;2024-02-28T01:19:08;19.67;;;10.45;;
33104;SDS011;19476;51.448;6.674;2024-02-28T01:21:33;19.33;;;10.98;;
33104;SDS011;19476;51.448;6.674;2024-02-28T01:23:59;17.58;;;10.73;;
33104;SDS011;19476;51.448;6.674;2024-02-28T01:26:25;16.65;;;9.73;;
33104;SDS011;19476;51.448;6.674;2024-02-28T01:28:50;18.42;;;9.60;;
33104;SDS011;19476;51.448;6.674;2024-02-28T01:31:16;16.83;;;9.20;;
33104;SDS011;19476;51.448;6.674;2024-02-28T01:33:42;17.58;;;10.13;;
33104;SDS011;19476;51.448;6.674;2024-02-28T01:36:07;18.60;;;10.82;;
33104;SDS011;19476;51.448;6.674;2024-02-28T01:38:33;19.05;;;10.80;;
33104;SDS011;19476;51.448;6.674;2024-02-28T01:40:59;18.75;;;10.98;;
33104;SDS011;19476;51.448;6.674;2024-02-28T01:43:25;18.92;;;9.80;;
33104;SDS011;19476;51.448;6.674;2024-02-28T01:45:50;17.52;;;9.50;;
33104;SDS011;19476;51.448;6.674;2024-02-28T01:48:16;17.85;;;9.80;;
33104;SDS011;19476;51.448;6.674;2024-02-28T01:50:42;18.33;;;10.82;;
33104;SDS011;19476;51.448;6.674;2024-02-28T01:53:08;18.73;;;10.63;;
33104;SDS011;19476;51.448;6.674;2024-02-28T01:55:36;18.42;;;10.13;;
33104;SDS011;19476;51.448;6.674;2024-02-28T01:58:03;17.08;;;10.18;;
33104;SDS011;19476;51.448;6.674;2024-02-28T02:00:32;20.00;;;11.80;;
33104;SDS011;19476;51.448;6.674;2024-02-28T02:03:02;17.42;;;10.23;;
33104;SDS011;19476;51.448;6.674;2024-02-28T02:05:28;18.98;;;10.68;;
33104;SDS011;19476;51.448;6.674;2024-02-28T02:07:54;17.42;;;10.27;;
33104;SDS011;19476;51.448;6.674;2024-02-28T02:10:21;19.00;;;9.57;;
33104;SDS011;19476;51.448;6.674;2024-02-28T02:12:48;18.23;;;10.35;;
33104;SDS011;19476;51.448;6.674;2024-02-28T02:15:14;18.85;;;10.43;;
33104;SDS011;19476;51.448;6.674;2024-02-28T02:17:39;19.67;;;11.02;;
33104;SDS011;19476;51.448;6.674;2024-02-28T02:20:05;18.58;;;10.13;;
33104;SDS011;19476;51.448;6.674;2024-02-28T02:22:38;19.17;;;10.85;;
33104;SDS011;19476;51.448;6.674;2024-02-28T02:25:04;18.77;;;10.50;;
33104;SDS011;19476;51.448;6.674;2024-02-28T02:27:30;19.80;;;10.38;;
33104;SDS011;19476;51.448;6.674;2024-02-28T02:29:56;20.08;;;11.50;;
33104;SDS011;19476;51.448;6.674;2024-02-28T02:32:21;21.90;;;11.18;;
33104;SDS011;19476;51.448;6.674;2024-02-28T02:34:47;27.63;;;13.10;;
33104;SDS011;19476;51.448;6.674;2024-02-28T02:37:12;25.67;;;13.15;;
33104;SDS011;19476;51.448;6.674;2024-02-28T02:39:38;25.85;;;13.65;;
33104;SDS011;19476;51.448;6.674;2024-02-28T02:42:04;27.60;;;13.95;;
33104;SDS011;19476;51.448;6.674;2024-02-28T02:44:30;27.10;;;12.35;;
33104;SDS011;19476;51.448;6.674;2024-02-28T02:46:55;30.10;;;13.63;;
33104;SDS011;19476;51.448;6.674;2024-02-28T02:49:21;22.90;;;12.02;;
33104;SDS011;19476;51.448;6.674;2024-02-28T02:51:47;21.95;;;11.57;;
33104;SDS011;19476;51.448;6.674;2024-02-28T02:54:13;23.73;;;11.45;;
33104;SDS011;19476;51.448;6.674;2024-02-28T02:56:41;22.52;;;10.70;;
33104;SDS011;19476;51.448;6.674;2024-02-28T02:59:09;21.90;;;11.50;;
33104;SDS011;19476;51.448;6.674;2024-02-28T03:01:37;21.63;;;10.93;;
33104;SDS011;19476;51.448;6.674;2024-02-28T03:04:03;22.73;;;11.52;;
33104;SDS011;19476;51.448;6.674;2024-02-28T03:06:29;22.75;;;11.60;;
33104;SDS011;19476;51.448;6.674;2024-02-28T03:08:55;24.30;;;12.65;;
33104;SDS011;19476;51.448;6.674;2024-02-28T03:11:20;28.63;;;12.52;;
33104;SDS011;19476;51.448;6.674;2024-02-28T03:13:46;24.27;;;12.55;;
33104;SDS011;19476;51.448;6.674;2024-02-28T03:16:12;25.02;;;13.40;;
33104;SDS011;19476;51.448;6.674;2024-02-28T03:18:37;26.48;;;13.30;;
33104;SDS011;19476;51.448;6.674;2024-02-28T03:21:03;27.65;;;12.77;;
33104;SDS011;19476;51.448;6.674;2024-02-28T03:23:29;21.77;;;11.95;;
33104;SDS011;19476;51.448;6.674;2024-02-28T03:25:55;23.48;;;12.43;;
33104;SDS011;19476;51.448;6.674;2024-02-28T03:28:20;28.20;;;13.50;;
33104;SDS011;19476;51.448;6.674;2024-02-28T03:30:46;22.38;;;12.35;;
33104;SDS011;19476;51.448;6.674;2024-02-28T03:33:12;24.42;;;13.13;;
33104;SDS011;19476;51.448;6.674;2024-02-28T03:35:37;23.02;;;12.15;;
33104;SDS011;19476;51.448;6.674;2024-02-28T03:38:03;20.88;;;12.15;;
33104;SDS011;19476;51.448;6.674;2024-02-28T03:40:29;25.23;;;13.43;;
33104;SDS011;19476;51.448;6.674;2024-02-28T03:42:54;25.13;;;12.88;;
33104;SDS011;19476;51.448;6.674;2024-02-28T03:45:20;27.60;;;14.93;;
33104;SDS011;19476;51.448;6.674;2024-02-28T03:47:46;28.23;;;13.63;;
33104;SDS011;19476;51.448;6.674;2024-02-28T03:50:11;29.13;;;14.75;;
33104;SDS011;19476;51.448;6.674;2024-02-28T03:52:37;25.60;;;13.93;;
33104;SDS011;19476;51.448;6.674;2024-02-28T03:55:03;28.73;;;14.27;;
33104;SDS011;19476;51.448;6.674;2024-02-28T03:57:28;29.52;;;15.63;;
33104;SDS011;19476;51.448;6.674;2024-02-28T03:59:54;26.73;;;14.93;;
33104;SDS011;19476;51.448;6.674;2024-02-28T04:02:20;29.42;;;16.30;;
33104;SDS011;19476;51.448;6.674;2024-02-28T04:04:45;29.42;;;16.20;;
33104;SDS011;19476;51.448;6.674;2024-02-28T04:07:11;29.63;;;16.00;;
33104;SDS011;19476;51.448;6.674;2024-02-28T04:09:37;29.75;;;15.25;;
33104;SDS011;19476;51.448;6.674;2024-02-28T04:12:03;31.58;;;14.95;;
33104;SDS011;19476;51.448;6.674;2024-02-28T04:14:28;26.00;;;14.70;;
33104;SDS011;19476;51.448;6.674;2024-02-28T04:16:54;25.75;;;14.45;;
33104;SDS011;19476;51.448;6.674;2024-02-28T04:19:20;25.60;;;14.90;;
33104;SDS011;19476;51.448;6.674;2024-02-28T04:21:45;26.85;;;15.30;;
33104;SDS011;19476;51.448;6.674;2024-02-28T04:24:11;27.38;;;15.90;;
33104;SDS011;19476;51.448;6.674;2024-02-28T04:26:37;29.25;;;15.13;;
33104;SDS011;19476;51.448;6.674;2024-02-28T04:29:02;26.02;;;14.65;;
33104;SDS011;19476;51.448;6.674;2024-02-28T04:31:30;26.33;;;16.10;;
33104;SDS011;19476;51.448;6.674;2024-02-28T04:33:56;26.80;;;15.43;;
33104;SDS011;19476;51.448;6.674;2024-02-28T04:36:21;25.42;;;14.85;;
33104;SDS011;19476;51.448;6.674;2024-02-28T04:38:47;30.15;;;16.15;;
33104;SDS011;19476;51.448;6.674;2024-02-28T04:41:13;26.33;;;15.65;;
33104;SDS011;19476;51.448;6.674;2024-02-28T04:43:39;35.45;;;17.52;;
33104;SDS011;19476;51.448;6.674;2024-02-28T04:46:05;27.85;;;14.98;;
33104;SDS011;19476;51.448;6.674;2024-02-28T04:48:31;27.88;;;15.55;;
33104;SDS011;19476;51.448;6.674;2024-02-28T04:50:56;25.13;;;15.32;;
33104;SDS011;19476;51.448;6.674;2024-02-28T04:53:22;28.25;;;15.27;;
33104;SDS011;19476;51.448;6.674;2024-02-28T04:55:48;25.20;;;16.13;;
33104;SDS011;19476;51.448;6.674;2024-02-28T04:58:13;26.75;;;15.60;;
33104;SDS011;19476;51.448;6.674;2024-02-28T05:00:39;29.70;;;16.45;;
33104;SDS011;19476;51.448;6.674;2024-02-28T05:03:05;28.98;;;16.10;;
33104;SDS011;19476;51.448;6.674;2024-02-28T05:05:31;33.33;;;17.10;;
33104;SDS011;19476;51.448;6.674;2024-02-28T05:07:56;29.80;;;15.70;;
33104;SDS011;19476;51.448;6.674;2024-02-28T05:10:22;30.02;;;15.63;;
33104;SDS011;19476;51.448;6.674;2024-02-28T05:12:48;27.08;;;16.25;;
33104;SDS011;19476;51.448;6.674;2024-02-28T05:15:13;25.92;;;15.23;;
33104;SDS011;19476;51.448;6.674;2024-02-28T05:17:39;33.53;;;16.67;;
33104;SDS011;19476;51.448;6.674;2024-02-28T05:20:05;28.05;;;15.75;;
33104;SDS011;19476;51.448;6.674;2024-02-28T05:22:31;23.48;;;14.95;;
33104;SDS011;19476;51.448;6.674;2024-02-28T05:24:58;31.80;;;17.45;;
33104;SDS011;19476;51.448;6.674;2024-02-28T05:27:23;33.88;;;18.35;;
33104;SDS011;19476;51.448;6.674;2024-02-28T05:29:49;33.47;;;17.58;;
33104;SDS011;19476;51.448;6.674;2024-02-28T05:32:15;41.10;;;19.38;;
33104;SDS011;19476;51.448;6.674;2024-02-28T05:34:42;28.13;;;16.85;;
33104;SDS011;19476;51.448;6.674;2024-02-28T05:37:07;29.17;;;16.65;;
33104;SDS011;19476;51.448;6.674;2024-02-28T05:39:33;37.63;;;20.33;;
33104;SDS011;19476;51.448;6.674;2024-02-28T05:41:59;34.67;;;19.20;;
33104;SDS011;19476;51.448;6.674;2024-02-28T05:44:25;40.40;;;20.42;;
33104;SDS011;19476;51.448;6.674;2024-02-28T05:46:50;32.03;;;18.50;;
33104;SDS011;19476;51.448;6.674;2024-02-28T05:49:16;31.70;;;18.13;;
33104;SDS011;19476;51.448;6.674;2024-02-28T05:51:42;40.47;;;21.17;;
33104;SDS011;19476;51.448;6.674;2024-02-28T05:54:08;38.95;;;20.33;;
33104;SDS011;19476;51.448;6.674;2024-02-28T05:56:33;37.63;;;19.38;;
33104;SDS011;19476;51.448;6.674;2024-02-28T05:58:59;29.23;;;18.67;;
33104;SDS011;19476;51.448;6.674;2024-02-28T06:01:25;35.35;;;19.77;;
33104;SDS011;19476;51.448;6.674;2024-02-28T06:03:50;35.75;;;19.42;;
33104;SDS011;19476;51.448;6.674;2024-02-28T06:06:16;43.72;;;21.30;;
33104;SDS011;19476;51.448;6.674;2024-02-28T06:08:42;35.88;;;19.15;;
33104;SDS011;19476;51.448;6.674;2024-02-28T06:11:08;29.42;;;17.73;;
33104;SDS011;19476;51.448;6.674;2024-02-28T06:13:35;37.22;;;20.98;;
33104;SDS011;19476;51.448;6.674;2024-02-28T06:16:01;38.83;;;20.10;;
33104;SDS011;19476;51.448;6.674;2024-02-28T06:18:27;29.85;;;17.67;;
33104;SDS011;19476;51.448;6.674;2024-02-28T06:20:53;40.83;;;21.48;;
33104;SDS011;19476;51.448;6.674;2024-02-28T06:23:20;38.05;;;20.13;;
33104;SDS011;19476;51.448;6.674;2024-02-28T06:25:46;35.08;;;19.88;;
33104;SDS011;19476;51.448;6.674;2024-02-28T06:28:12;32.05;;;17.85;;
33104;SDS011;19476;51.448;6.674;2024-02-28T06:30:37;35.45;;;20.95;;
33104;SDS011;19476;51.448;6.674;2024-02-28T06:33:03;34.78;;;19.98;;
33104;SDS011;19476;51.448;6.674;2024-02-28T06:35:33;35.97;;;20.50;;
33104;SDS011;19476;51.448;6.674;2024-02-28T06:38:00;36.53;;;20.73;;
33104;SDS011;19476;51.448;6.674;2024-02-28T06:40:25;34.58;;;19.00;;
33104;SDS011;19476;51.448;6.674;2024-02-28T06:42:51;33.30;;;19.35;;
33104;SDS011;19476;51.448;6.674;2024-02-28T06:45:17;33.70;;;19.73;;
33104;SDS011;19476;51.448;6.674;2024-02-28T06:47:43;37.15;;;20.15;;
33104;SDS011;19476;51.448;6.674;2024-02-28T06:50:10;34.53;;;18.77;;
33104;SDS011;19476;51.448;6.674;2024-02-28T06:52:36;32.00;;;18.10;;
33104;SDS011;19476;51.448;6.674;2024-02-28T06:55:02;31.10;;;18.52;;
33104;SDS011;19476;51.448;6.674;2024-02-28T06:57:35;38.55;;;21.58;;
33104;SDS011;19476;51.448;6.674;2024-02-28T07:00:09;35.75;;;19.33;;
33104;SDS011;19476;51.448;6.674;2024-02-28T07:02:36;33.38;;;18.45;;
33104;SDS011;19476;51.448;6.674;2024-02-28T07:05:02;37.35;;;18.38;;
33104;SDS011;19476;51.448;6.674;2024-02-28T07:07:29;34.45;;;18.42;;
33104;SDS011;19476;51.448;6.674;2024-02-28T07:09:56;39.78;;;19.33;;
33104;SDS011;19476;51.448;6.674;2024-02-28T07:12:22;33.72;;;19.52;;
33104;SDS011;19476;51.448;6.674;2024-02-28T07:14:48;31.73;;;18.35;;
33104;SDS011;19476;51.448;6.674;2024-02-28T07:17:13;30.25;;;16.98;;
33104;SDS011;19476;51.448;6.674;2024-02-28T07:19:39;38.00;;;18.83;;
33104;SDS011;19476;51.448;6.674;2024-02-28T07:22:05;37.28;;;19.92;;
33104;SDS011;19476;51.448;6.674;2024-02-28T07:24:31;32.60;;;17.15;;
33104;SDS011;19476;51.448;6.674;2024-02-28T07:26:57;30.77;;;17.48;;
33104;SDS011;19476;51.448;6.674;2024-02-28T07:29:23;38.42;;;19.35;;
33104;SDS011;19476;51.448;6.674;2024-02-28T07:31:51;38.85;;;19.70;;
33104;SDS011;19476;51.448;6.674;2024-02-28T07:34:17;34.20;;;17.60;;
33104;SDS011;19476;51.448;6.674;2024-02-28T07:36:42;41.85;;;21.02;;
33104;SDS011;19476;51.448;6.674;2024-02-28T07:39:08;40.35;;;20.13;;
33104;SDS011;19476;51.448;6.674;2024-02-28T07:41:37;39.00;;;19.77;;
33104;SDS011;19476;51.448;6.674;2024-02-28T07:44:04;37.90;;;20.13;;
33104;SDS011;19476;51.448;6.674;2024-02-28T07:46:32;40.55;;;20.23;;
33104;SDS011;19476;51.448;6.674;2024-02-28T07:48:57;41.13;;;19.70;;
33104;SDS011;19476;51.448;6.674;2024-02-28T07:51:23;42.88;;;20.58;;
33104;SDS011;19476;51.448;6.674;2024-02-28T07:53:49;40.47;;;19.33;;
33104;SDS011;19476;51.448;6.674;2024-02-28T07:56:18;34.97;;;18.70;;
33104;SDS011;19476;51.448;6.674;2024-02-28T07:58:44;41.35;;;19.63;;
33104;SDS011;19476;51.448;6.674;2024-02-28T08:01:10;42.45;;;20.52;;
33104;SDS011;19476;51.448;6.674;2024-02-28T08:03:36;41.20;;;20.55;;
33104;SDS011;19476;51.448;6.674;2024-02-28T08:06:02;40.60;;;20.67;;
33104;SDS011;19476;51.448;6.674;2024-02-28T08:08:28;38.50;;;19.63;;
33104;SDS011;19476;51.448;6.674;2024-02-28T08:10:54;37.92;;;19.35;;
33104;SDS011;19476;51.448;6.674;2024-02-28T08:13:20;41.15;;;20.65;;
33104;SDS011;19476;51.448;6.674;2024-02-28T08:15:45;42.95;;;21.73;;
33104;SDS011;19476;51.448;6.674;2024-02-28T08:18:11;47.30;;;23.13;;
33104;SDS011;19476;51.448;6.674;2024-02-28T08:20:37;46.58;;;22.42;;
33104;SDS011;19476;51.448;6.674;2024-02-28T08:23:06;43.83;;;20.40;;
33104;SDS011;19476;51.448;6.674;2024-02-28T08:25:32;41.58;;;22.67;;
33104;SDS011;19476;51.448;6.674;2024-02-28T08:27:57;46.58;;;22.35;;
33104;SDS011;19476;51.448;6.674;2024-02-28T08:30:24;40.88;;;20.73;;
33104;SDS011;19476;51.448;6.674;2024-02-28T08:32:50;40.40;;;20.10;;
33104;SDS011;19476;51.448;6.674;2024-02-28T08:35:17;39.67;;;19.13;;
33104;SDS011;19476;51.448;6.674;2024-02-28T08:37:43;41.35;;;20.10;;
33104;SDS011;19476;51.448;6.674;2024-02-28T08:40:09;41.85;;;21.38;;
33104;SDS011;19476;51.448;6.674;2024-02-28T08:42:36;43.55;;;22.17;;
33104;SDS011;19476;51.448;6.674;2024-02-28T08:45:02;44.10;;;22.15;;
33104;SDS011;19476;51.448;6.674;2024-02-28T08:47:28;41.95;;;20.70;;
33104;SDS011;19476;51.448;6.674;2024-02-28T08:49:54;43.08;;;20.90;;
33104;SDS011;19476;51.448;6.674;2024-02-28T08:52:20;36.75;;;18.80;;
33104;SDS011;19476;51.448;6.674;2024-02-28T08:54:46;38.20;;;18.45;;
33104;SDS011;19476;51.448;6.674;2024-02-28T08:57:12;35.75;;;18.20;;
33104;SDS011;19476;51.448;6.674;2024-02-28T08:59:38;35.63;;;18.80;;
33104;SDS011;19476;51.448;6.674;2024-02-28T09:02:05;40.22;;;20.45;;
33104;SDS011;19476;51.448;6.674;2024-02-28T09:04:31;34.05;;;18.05;;
33104;SDS011;19476;51.448;6.674;2024-02-28T09:06:57;36.17;;;18.13;;
33104;SDS011;19476;51.448;6.674;2024-02-28T09:09:23;36.97;;;18.95;;
33104;SDS011;19476;51.448;6.674;2024-02-28T09:11:48;32.08;;;17.65;;
33104;SDS011;19476;51.448;6.674;2024-02-28T09:14:14;36.40;;;19.42;;
33104;SDS011;19476;51.448;6.674;2024-02-28T09:16:40;34.70;;;17.88;;
33104;SDS011;19476;51.448;6.674;2024-02-28T09:19:06;32.58;;;17.63;;
33104;SDS011;19476;51.448;6.674;2024-02-28T09:21:31;34.20;;;17.40;;
33104;SDS011;19476;51.448;6.674;2024-02-28T09:23:57;38.30;;;18.70;;
33104;SDS011;19476;51.448;6.674;2024-02-28T09:26:23;36.42;;;18.35;;
33104;SDS011;19476;51.448;6.674;2024-02-28T09:28:48;34.10;;;20.15;;
33104;SDS011;19476;51.448;6.674;2024-02-28T09:31:14;36.85;;;19.70;;
33104;SDS011;19476;51.448;6.674;2024-02-28T09:33:43;34.92;;;18.02;;
33104;SDS011;19476;51.448;6.674;2024-02-28T09:36:10;38.20;;;19.00;;
33104;SDS011;19476;51.448;6.674;2024-02-28T09:38:36;36.72;;;19.58;;
33104;SDS011;19476;51.448;6.674;2024-02-28T09:41:02;37.85;;;20.48;;
33104;SDS011;19476;51.448;6.674;2024-02-28T09:43:29;35.15;;;19.08;;
33104;SDS011;19476;51.448;6.674;2024-02-28T09:45:59;32.58;;;17.90;;
33104;SDS011;19476;51.448;6.674;2024-02-28T09:48:29;36.28;;;18.67;;
33104;SDS011;19476;51.448;6.674;2024-02-28T09:50:55;33.70;;;18.08;;
33104;SDS011;19476;51.448;6.674;2024-02-28T09:53:22;33.55;;;18.02;;
33104;SDS011;19476;51.448;6.674;2024-02-28T09:55:51;34.20;;;18.08;;
33104;SDS011;19476;51.448;6.674;2024-02-28T09:58:17;31.92;;;16.90;;
33104;SDS011;19476;51.448;6.674;2024-02-28T10:00:45;33.10;;;17.35;;
33104;SDS011;19476;51.448;6.674;2024-02-28T10:03:12;32.10;;;16.80;;
33104;SDS011;19476;51.448;6.674;2024-02-28T10:05:42;34.30;;;18.92;;
33104;SDS011;19476;51.448;6.674;2024-02-28T10:08:09;40.97;;;17.75;;
33104;SDS011;19476;51.448;6.674;2024-02-28T10:10:37;35.92;;;18.45;;
33104;SDS011;19476;51.448;6.674;2024-02-28T10:13:04;32.17;;;17.08;;
33104;SDS011;19476;51.448;6.674;2024-02-28T10:15:30;36.28;;;18.08;;
33104;SDS011;19476;51.448;6.674;2024-02-28T10:17:56;37.88;;;19.80;;
33104;SDS011;19476;51.448;6.674;2024-02-28T10:20:22;32.33;;;18.08;;
33104;SDS011;19476;51.448;6.674;2024-02-28T10:22:48;37.83;;;19.35;;
33104;SDS011;19476;51.448;6.674;2024-02-28T10:25:13;35.72;;;19.27;;
33104;SDS011;19476;51.448;6.674;2024-02-28T10:27:39;33.85;;;18.02;;
33104;SDS011;19476;51.448;6.674;2024-02-28T10:30:06;32.20;;;16.27;;
33104;SDS011;19476;51.448;6.674;2024-02-28T10:32:33;35.45;;;19.23;;
33104;SDS011;19476;51.448;6.674;2024-02-28T10:35:00;34.95;;;18.02;;
33104;SDS011;19476;51.448;6.674;2024-02-28T10:37:26;29.02;;;16.88;;
33104;SDS011;19476;51.448;6.674;2024-02-28T10:39:56;32.00;;;17.25;;
33104;SDS011;19476;51.448;6.674;2024-02-28T10:42:24;35.83;;;17.92;;
33104;SDS011;19476;51.448;6.674;2024-02-28T10:44:52;31.15;;;17.08;;
33104;SDS011;19476;51.448;6.674;2024-02-28T10:47:18;30.35;;;16.17;;
33104;SDS011;19476;51.448;6.674;2024-02-28T10:49:45;28.85;;;14.93;;
33104;SDS011;19476;51.448;6.674;2024-02-28T10:52:11;29.30;;;15.68;;
33104;SDS011;19476;51.448;6.674;2024-02-28T10:54:40;27.85;;;14.30;;
33104;SDS011;19476;51.448;6.674;2024-02-28T10:57:07;27.90;;;14.57;;
33104;SDS011;19476;51.448;6.674;2024-02-28T10:59:35;30.83;;;15.30;;
33104;SDS011;19476;51.448;6.674;2024-02-28T11:02:02;30.23;;;15.70;;
33104;SDS011;19476;51.448;6.674;2024-02-28T11:04:29;28.30;;;15.23;;
33104;SDS011;19476;51.448;6.674;2024-02-28T11:07:00;27.13;;;14.27;;
33104;SDS011;19476;51.448;6.674;2024-02-28T11:09:28;31.63;;;16.77;;
33104;SDS011;19476;51.448;6.674;2024-02-28T11:11:56;28.55;;;14.57;;
33104;SDS011;19476;51.448;6.674;2024-02-28T11:14:22;29.45;;;15.73;;
33104;SDS011;19476;51.448;6.674;2024-02-28T11:17:03;32.25;;;16.73;;
33104;SDS011;19476;51.448;6.674;2024-02-28T11:19:30;29.88;;;15.57;;
33104;SDS011;19476;51.448;6.674;2024-02-28T11:21:57;31.95;;;16.75;;
33104;SDS011;19476;51.448;6.674;2024-02-28T11:24:24;35.15;;;19.70;;
33104;SDS011;19476;51.448;6.674;2024-02-28T11:26:54;32.60;;;15.98;;
33104;SDS011;19476;51.448;6.674;2024-02-28T11:29:26;37.15;;;17.90;;
33104;SDS011;19476;51.448;6.674;2024-02-28T11:31:56;34.97;;;18.42;;
33104;SDS011;19476;51.448;6.674;2024-02-28T11:34:22;32.45;;;16.00;;
33104;SDS011;19476;51.448;6.674;2024-02-28T11:36:50;34.15;;;18.27;;
33104;SDS011;19476;51.448;6.674;2024-02-28T11:39:16;30.90;;;16.02;;
33104;SDS011;19476;51.448;6.674;2024-02-28T11:41:43;29.58;;;15.23;;
33104;SDS011;19476;51.448;6.674;2024-02-28T11:44:16;28.75;;;15.20;;
33104;SDS011;19476;51.448;6.674;2024-02-28T11:46:46;29.52;;;15.27;;
33104;SDS011;19476;51.448;6.674;2024-02-28T11:49:14;26.27;;;13.75;;
33104;SDS011;19476;51.448;6.674;2024-02-28T11:51:41;26.42;;;14.20;;
33104;SDS011;19476;51.448;6.674;2024-02-28T11:54:08;23.92;;;13.70;;
33104;SDS011;19476;51.448;6.674;2024-02-28T11:56:37;24.70;;;13.32;;
33104;SDS011;19476;51.448;6.674;2024-02-28T11:59:04;24.60;;;13.18;;
33104;SDS011;19476;51.448;6.674;2024-02-28T12:01:42;26.73;;;14.15;;
33104;SDS011;19476;51.448;6.674;2024-02-28T12:04:12;23.55;;;12.65;;
33104;SDS011;19476;51.448;6.674;2024-02-28T12:06:38;24.48;;;14.05;;
33104;SDS011;19476;51.448;6.674;2024-02-28T12:09:05;23.33;;;13.05;;
33104;SDS011;19476;51.448;6.674;2024-02-28T12:11:33;26.63;;;14.83;;
33104;SDS011;19476;51.448;6.674;2024-02-28T12:14:04;30.73;;;15.20;;
33104;SDS011;19476;51.448;6.674;2024-02-28T12:16:36;25.50;;;13.10;;
33104;SDS011;19476;51.448;6.674;2024-02-28T12:19:09;28.42;;;14.77;;
33104;SDS011;19476;51.448;6.674;2024-02-28T12:21:39;23.25;;;13.43;;
33104;SDS011;19476;51.448;6.674;2024-02-28T12:24:06;25.02;;;13.20;;
33104;SDS011;19476;51.448;6.674;2024-02-28T12:26:36;22.17;;;12.60;;
33104;SDS011;19476;51.448;6.674;2024-02-28T12:29:05;21.63;;;11.52;;
33104;SDS011;19476;51.448;6.674;2024-02-28T12:31:32;22.77;;;11.70;;
33104;SDS011;19476;51.448;6.674;2024-02-28T12:33:58;23.63;;;12.73;;
33104;SDS011;19476;51.448;6.674;2024-02-28T12:36:24;24.92;;;14.30;;
33104;SDS011;19476;51.448;6.674;2024-02-28T12:38:50;22.08;;;12.48;;
33104;SDS011;19476;51.448;6.674;2024-02-28T12:41:16;23.23;;;12.43;;
33104;SDS011;19476;51.448;6.674;2024-02-28T12:43:42;18.75;;;11.63;;
33104;SDS011;19476;51.448;6.674;2024-02-28T12:46:08;23.25;;;13.20;;
33104;SDS011;19476;51.448;6.674;2024-02-28T12:48:37;23.95;;;13.30;;
33104;SDS011;19476;51.448;6.674;2024-02-28T12:51:04;22.88;;;12.48;;
33104;SDS011;19476;51.448;6.674;2024-02-28T12:53:33;19.88;;;11.77;;
33104;SDS011;19476;51.448;6.674;2024-02-28T12:55:59;20.95;;;11.75;;
33104;SDS011;19476;51.448;6.674;2024-02-28T12:58:25;21.52;;;11.82;;
33104;SDS011;19476;51.448;6.674;2024-02-28T13:00:51;20.60;;;11.60;;
33104;SDS011;19476;51.448;6.674;2024-02-28T13:03:17;23.45;;;12.55;;
33104;SDS011;19476;51.448;6.674;2024-02-28T13:05:44;20.90;;;11.85;;
33104;SDS011;19476;51.448;6.674;2024-02-28T13:08:09;17.75;;;10.93;;
33104;SDS011;19476;51.448;6.674;2024-02-28T13:10:35;20.23;;;11.35;;
33104;SDS011;19476;51.448;6.674;2024-02-28T13:13:04;19.50;;;10.70;;
33104;SDS011;19476;51.448;6.674;2024-02-28T13:15:31;20.63;;;11.75;;
33104;SDS011;19476;51.448;6.674;2024-02-28T13:17:57;20.92;;;11.45;;
33104;SDS011;19476;51.448;6.674;2024-02-28T13:20:23;21.10;;;11.30;;
33104;SDS011;19476;51.448;6.674;2024-02-28T13:22:48;21.48;;;10.70;;
33104;SDS011;19476;51.448;6.674;2024-02-28T13:25:15;22.05;;;11.57;;
33104;SDS011;19476;51.448;6.674;2024-02-28T13:27:43;19.58;;;10.95;;
33104;SDS011;19476;51.448;6.674;2024-02-28T13:30:09;19.67;;;10.55;;
33104;SDS011;19476;51.448;6.674;2024-02-28T13:32:34;19.50;;;10.85;;
33104;SDS011;19476;51.448;6.674;2024-02-28T13:35:00;20.63;;;11.25;;
33104;SDS011;19476;51.448;6.674;2024-02-28T13:37:26;18.05;;;10.85;;
33104;SDS011;19476;51.448;6.674;2024-02-28T13:39:52;21.23;;;9.60;;
33104;SDS011;19476;51.448;6.674;2024-02-28T13:42:18;18.40;;;10.88;;
33104;SDS011;19476;51.448;6.674;2024-02-28T13:44:45;20.15;;;10.88;;
33104;SDS011;19476;51.448;6.674;2024-02-28T13:47:11;20.58;;;10.68;;
33104;SDS011;19476;51.448;6.674;2024-02-28T13:49:41;18.42;;;10.93;;
33104;SDS011;19476;51.448;6.674;2024-02-28T13:52:06;18.08;;;9.88;;
33104;SDS011;19476;51.448;6.674;2024-02-28T13:54:32;16.27;;;9.73;;
33104;SDS011;19476;51.448;6.674;2024-02-28T13:56:58;16.15;;;9.95;;
33104;SDS011;19476;51.448;6.674;2024-02-28T13:59:24;18.02;;;10.05;;
33104;SDS011;19476;51.448;6.674;2024-02-28T14:01:50;16.15;;;8.98;;
33104;SDS011;19476;51.448;6.674;2024-02-28T14:04:15;15.15;;;8.70;;
33104;SDS011;19476;51.448;6.674;2024-02-28T14:06:41;15.18;;;8.45;;
33104;SDS011;19476;51.448;6.674;2024-02-28T14:09:07;15.73;;;9.13;;
33104;SDS011;19476;51.448;6.674;2024-02-28T14:11:34;17.17;;;9.18;;
33104;SDS011;19476;51.448;6.674;2024-02-28T14:13:59;14.65;;;8.32;;
33104;SDS011;19476;51.448;6.674;2024-02-28T14:16:25;16.83;;;9.25;;
33104;SDS011;19476;51.448;6.674;2024-02-28T14:18:51;20.20;;;9.68;;